createdAt,value
2023-01-20T00:00:32.247Z,97395.17
2023-01-20T00:03:55.290Z,97403.63
2023-01-20T00:06:56.684Z,97406.73
2023-01-20T00:09:58.083Z,97406.91
2023-01-20T00:12:59.415Z,97414.27
2023-01-20T00:16:08.053Z,97418.35
2023-01-20T00:19:13.609Z,97426.30
2023-01-20T00:22:14.991Z,97427.20
2023-01-20T00:25:16.831Z,97426.45
2023-01-20T00:28:18.165Z,97429.27
2023-01-20T00:31:21.222Z,97432.55
2023-01-20T00:34:22.676Z,97438.13
2023-01-20T00:37:24.013Z,97444.35
2023-01-20T00:40:25.578Z,97443.11
2023-01-20T00:43:26.991Z,97442.48
2023-01-20T00:46:28.419Z,97442.42
2023-01-20T00:49:29.950Z,97442.56
2023-01-20T00:52:31.349Z,97452.16
2023-01-20T00:55:32.827Z,97466.83
2023-01-20T00:58:34.263Z,97470.27
2023-01-20T01:01:36.042Z,97477.36
2023-01-20T01:04:37.522Z,97477.52
2023-01-20T01:07:38.863Z,97477.39
2023-01-20T01:10:40.518Z,97481.56
2023-01-20T01:13:42.043Z,97491.70
2023-01-20T01:16:44.198Z,97491.00
2023-01-20T01:19:45.592Z,97493.03
2023-01-20T01:22:47.234Z,97484.79
2023-01-20T01:25:48.645Z,97485.73
2023-01-20T01:28:50.190Z,97486.59
2023-01-20T01:31:51.660Z,97488.42
2023-01-20T01:34:53.080Z,97478.05
2023-01-20T01:37:54.767Z,97475.01
2023-01-20T01:40:56.547Z,97469.21
2023-01-20T01:44:01.643Z,97463.28
2023-01-20T01:47:03.047Z,97463.69
2023-01-20T01:50:05.846Z,97468.22
2023-01-20T01:53:09.113Z,97464.85
2023-01-20T01:56:11.339Z,97460.13
2023-01-20T01:59:15.365Z,97461.60
2023-01-20T02:02:23.972Z,97452.42
2023-01-20T02:05:27.803Z,97441.82
2023-01-20T02:08:29.313Z,97442.54
2023-01-20T02:11:37.031Z,97440.41
2023-01-20T02:14:46.576Z,97433.09
2023-01-20T02:18:06.145Z,97429.02
2023-01-20T02:21:38.178Z,97432.89
2023-01-20T02:25:33.373Z,97431.23
2023-01-20T02:28:53.221Z,97428.31
2023-01-20T02:32:13.350Z,97429.23
2023-01-20T02:35:40.171Z,97425.06
2023-01-20T02:38:52.047Z,97426.87
2023-01-20T02:42:00.496Z,97428.55
2023-01-20T02:45:05.770Z,97427.86
2023-01-20T02:48:24.008Z,97428.64
2023-01-20T02:51:31.098Z,97433.14
2023-01-20T02:54:35.862Z,97432.05
2023-01-20T02:57:48.180Z,97432.33
2023-01-20T03:01:12.852Z,97428.87
2023-01-20T03:04:18.146Z,97434.71
2023-01-20T03:07:23.329Z,97435.73
2023-01-20T03:10:29.897Z,97432.80
2023-01-20T03:13:36.228Z,97429.48
2023-01-20T03:16:39.590Z,97434.73
2023-01-20T03:19:41.167Z,97437.48
2023-01-20T03:22:42.834Z,97434.02
2023-01-20T03:25:47.013Z,97439.13
2023-01-20T03:28:49.164Z,97443.45
2023-01-20T03:31:56.568Z,97446.52
2023-01-20T03:34:58.584Z,97451.08
2023-01-20T03:38:00.104Z,97457.63
2023-01-20T03:41:19.728Z,97462.88
2023-01-20T03:44:30.302Z,97469.89
2023-01-20T03:47:54.560Z,97474.30
2023-01-20T03:51:10.777Z,97477.34
2023-01-20T03:54:17.962Z,97480.37
2023-01-20T03:57:25.714Z,97482.66
2023-01-20T04:00:30.637Z,97480.33
2023-01-20T04:03:38.088Z,97483.90
2023-01-20T04:06:43.031Z,97485.84
2023-01-20T04:09:51.935Z,97488.56
2023-01-20T04:12:53.740Z,97487.70
2023-01-20T04:15:56.595Z,97492.44
2023-01-20T04:18:58.199Z,97491.54
2023-01-20T04:22:05.863Z,97491.59
2023-01-20T04:25:21.553Z,97491.23
2023-01-20T04:28:22.979Z,97495.23
2023-01-20T04:31:30.668Z,97497.70
2023-01-20T04:34:32.814Z,97496.10
2023-01-20T04:37:34.200Z,97500.34
2023-01-20T04:40:35.754Z,97494.70
2023-01-20T04:43:37.125Z,97491.87
2023-01-20T04:46:38.589Z,97492.58
2023-01-20T04:49:40.054Z,97493.36
2023-01-20T04:52:42.060Z,97492.17
2023-01-20T04:55:43.445Z,97492.39
2023-01-20T04:58:47.509Z,97491.28
2023-01-20T05:01:48.865Z,97487.05
2023-01-20T05:04:50.318Z,97483.09
2023-01-20T05:07:52.755Z,97481.09
2023-01-20T05:10:54.420Z,97481.09
2023-01-20T05:13:55.739Z,97479.05
2023-01-20T05:16:57.343Z,97474.43
2023-01-20T05:19:58.746Z,97473.65
2023-01-20T05:23:01.478Z,97466.96
2023-01-20T05:26:02.928Z,97462.10
2023-01-20T05:29:04.556Z,97460.58
2023-01-20T05:32:05.893Z,97467.42
2023-01-20T05:35:08.254Z,97464.70
2023-01-20T05:38:09.616Z,97463.17
2023-01-20T05:41:11.632Z,97460.15
2023-01-20T05:44:14.228Z,97460.36
2023-01-20T05:47:15.715Z,97456.29
2023-01-20T05:50:17.190Z,97451.67
2023-01-20T05:53:19.015Z,97451.79
2023-01-20T05:56:20.459Z,97446.31
2023-01-20T05:59:23.255Z,97439.50
2023-01-20T06:02:24.599Z,97433.39
2023-01-20T06:05:26.381Z,97424.40
2023-01-20T06:08:27.835Z,97417.96
2023-01-20T06:11:29.286Z,97401.74
2023-01-20T06:14:30.754Z,97389.61
2023-01-20T06:17:32.217Z,97385.73
2023-01-20T06:20:33.654Z,97392.23
2023-01-20T06:23:35.339Z,97397.58
2023-01-20T06:26:36.718Z,97404.59
2023-01-20T06:29:38.194Z,97405.23
2023-01-20T06:32:39.562Z,97408.05
2023-01-20T06:35:40.978Z,97407.28
2023-01-20T06:38:47.614Z,97400.02
2023-01-20T06:41:49.069Z,97397.23
2023-01-20T06:44:50.460Z,97398.64
2023-01-20T06:47:51.909Z,97404.70
2023-01-20T06:50:53.354Z,97409.59
2023-01-20T06:53:55.115Z,97422.54
2023-01-20T06:56:56.546Z,97424.27
2023-01-20T06:59:58.694Z,97425.40
2023-01-20T07:03:00.222Z,97421.77
2023-01-20T07:06:05.190Z,97422.88
2023-01-20T07:09:09.660Z,97424.73
2023-01-20T07:12:11.054Z,97419.94
2023-01-20T07:15:12.465Z,97421.02
2023-01-20T07:18:14.180Z,97420.16
2023-01-20T07:21:16.044Z,97410.17
2023-01-20T07:24:17.506Z,97418.95
2023-01-20T07:27:18.837Z,97425.16
2023-01-20T07:30:20.278Z,97424.73
2023-01-20T07:33:21.740Z,97422.84
2023-01-20T07:36:24.362Z,97428.70
2023-01-20T07:39:25.781Z,97433.19
2023-01-20T07:42:27.243Z,97436.70
2023-01-20T07:45:28.662Z,97447.09
2023-01-20T07:48:31.860Z,97453.33
2023-01-20T07:51:33.271Z,97463.39
2023-01-20T07:54:34.890Z,97469.90
2023-01-20T07:57:36.479Z,97474.40
2023-01-20T08:00:37.977Z,97474.95
2023-01-20T08:03:39.997Z,97478.90
2023-01-20T08:06:41.625Z,97488.50
2023-01-20T08:09:43.278Z,97491.08
2023-01-20T08:12:44.707Z,97494.05
2023-01-20T08:15:46.079Z,97499.15
2023-01-20T08:18:47.895Z,97500.65
2023-01-20T08:21:50.340Z,97501.91
2023-01-20T08:24:51.745Z,97507.56
2023-01-20T08:27:53.078Z,97508.85
2023-01-20T08:30:55.440Z,97512.20
2023-01-20T08:33:57.327Z,97512.16
2023-01-20T08:36:58.786Z,97514.08
2023-01-20T08:40:00.196Z,97515.70
2023-01-20T08:43:01.674Z,97517.11
2023-01-20T08:46:06.711Z,97515.39
2023-01-20T08:49:10.570Z,97514.31
2023-01-20T08:52:12.350Z,97508.94
2023-01-20T08:55:14.048Z,97510.77
2023-01-20T08:58:16.034Z,97504.73
2023-01-20T09:01:20.595Z,97495.94
2023-01-20T09:04:22.235Z,97493.14
2023-01-20T09:07:23.787Z,97487.38
2023-01-20T09:10:25.118Z,97480.17
2023-01-20T09:13:26.506Z,97478.30
2023-01-20T09:16:27.891Z,97470.39
2023-01-20T09:19:29.449Z,97473.23
2023-01-20T09:22:30.840Z,97470.34
2023-01-20T09:25:32.222Z,97472.24
2023-01-20T09:28:34.056Z,97470.17
2023-01-20T09:31:37.710Z,97470.77
2023-01-20T09:34:39.233Z,97472.91
2023-01-20T09:37:59.489Z,97470.44
2023-01-20T09:41:28.633Z,97471.85
2023-01-20T09:44:39.370Z,97463.58
2023-01-20T09:47:46.569Z,97461.77
2023-01-20T09:51:20.716Z,97460.66
2023-01-20T09:54:27.385Z,97462.63
2023-01-20T09:57:34.032Z,97458.11
2023-01-20T10:00:37.590Z,97447.85
2023-01-20T10:03:50.519Z,97440.18
2023-01-20T10:07:02.074Z,97431.48
2023-01-20T10:10:22.989Z,97423.06
2023-01-20T10:13:35.833Z,97420.02
2023-01-20T10:17:03.746Z,97412.02
2023-01-20T10:20:34.449Z,97410.52
2023-01-20T10:23:44.325Z,97411.35
2023-01-20T10:27:02.930Z,97412.75
2023-01-20T10:30:11.696Z,97412.09
2023-01-20T10:33:15.653Z,97417.98
2023-01-20T10:36:31.219Z,97420.27
2023-01-20T10:39:46.142Z,97414.80
2023-01-20T10:42:56.117Z,97411.75
2023-01-20T10:46:22.236Z,97407.25
2023-01-20T10:49:52.242Z,97396.64
2023-01-20T10:53:29.734Z,97382.66
2023-01-20T10:56:35.362Z,97373.98
2023-01-20T10:59:48.554Z,97372.18
2023-01-20T11:02:51.804Z,97372.41
2023-01-20T11:05:53.614Z,97368.79
2023-01-20T11:08:56.356Z,97369.90
2023-01-20T11:11:59.945Z,97363.70
2023-01-20T11:15:02.441Z,97358.51
2023-01-20T11:18:13.110Z,97355.11
2023-01-20T11:21:14.567Z,97359.02
2023-01-20T11:24:58.151Z,97358.04
2023-01-20T11:28:02.127Z,97361.55
2023-01-20T11:31:04.589Z,97367.91
2023-01-20T11:34:21.169Z,97375.80
2023-01-20T11:37:37.359Z,97378.42
2023-01-20T11:40:52.309Z,97382.89
2023-01-20T11:43:58.770Z,97383.27
2023-01-20T11:47:20.283Z,97382.20
2023-01-20T11:50:30.848Z,97373.55
2023-01-20T11:53:33.366Z,97366.93
2023-01-20T11:56:40.961Z,97365.06
2023-01-20T11:59:48.630Z,97363.23
2023-01-20T12:03:01.463Z,97359.32
2023-01-20T12:06:12.437Z,97361.08
2023-01-20T12:09:17.401Z,97359.02
2023-01-20T12:12:38.997Z,97360.94
2023-01-20T12:15:43.754Z,97356.69
2023-01-20T12:19:01.867Z,97361.02
2023-01-20T12:22:12.897Z,97365.53
2023-01-20T12:25:23.089Z,97369.02
2023-01-20T12:28:33.692Z,97368.20
2023-01-20T12:31:35.222Z,97365.44
2023-01-20T12:34:38.050Z,97355.58
2023-01-20T12:37:39.411Z,97351.06
2023-01-20T12:41:07.096Z,97348.50
2023-01-20T12:44:23.113Z,97341.48
2023-01-20T12:47:43.308Z,97343.91
2023-01-20T12:51:08.731Z,97343.21
2023-01-20T12:54:47.754Z,97344.51
2023-01-20T12:58:03.062Z,97344.10
2023-01-20T13:01:10.222Z,97344.48
2023-01-20T13:04:41.750Z,97348.67
2023-01-20T13:07:49.703Z,97353.38
2023-01-20T13:11:03.570Z,97356.13
2023-01-20T13:14:38.227Z,97353.58
2023-01-20T13:17:59.433Z,97353.48
2023-01-20T13:21:00.838Z,97354.19
2023-01-20T13:24:05.515Z,97353.65
2023-01-20T13:27:08.447Z,97353.02
2023-01-20T13:30:42.345Z,97350.73
2023-01-20T13:33:43.822Z,97350.21
2023-01-20T13:37:03.726Z,97341.27
2023-01-20T13:40:37.299Z,97334.76
2023-01-20T13:43:46.358Z,97331.23
2023-01-20T13:46:48.467Z,97333.96
2023-01-20T13:49:51.557Z,97327.33
2023-01-20T13:52:52.935Z,97324.72
2023-01-20T13:55:56.393Z,97332.20
2023-01-20T13:58:58.315Z,97327.98
2023-01-20T14:02:25.093Z,97324.66
2023-01-20T14:05:30.609Z,97326.95
2023-01-20T14:08:43.928Z,97325.78
2023-01-20T14:11:53.946Z,97322.63
2023-01-20T14:14:55.437Z,97313.20
2023-01-20T14:17:58.367Z,97312.86
2023-01-20T14:21:20.761Z,97307.11
2023-01-20T14:24:43.519Z,97303.44
2023-01-20T14:27:44.971Z,97299.91
2023-01-20T14:30:47.926Z,97296.04
2023-01-20T14:33:59.586Z,97295.04
2023-01-20T14:37:22.794Z,97297.77
2023-01-20T14:40:28.135Z,97298.56
2023-01-20T14:43:31.879Z,97304.92
2023-01-20T14:46:35.758Z,97309.17
2023-01-20T14:49:41.201Z,97304.27
2023-01-20T14:52:42.962Z,97297.84
2023-01-20T14:56:03.875Z,97298.81
2023-01-20T14:59:18.838Z,97296.84
2023-01-20T15:02:28.879Z,97294.81
2023-01-20T15:05:32.973Z,97291.79
2023-01-20T15:08:34.318Z,97288.97
2023-01-20T15:11:36.007Z,97283.98
2023-01-20T15:14:37.347Z,97279.95
2023-01-20T15:18:10.278Z,97279.92
2023-01-20T15:21:20.910Z,97277.73
2023-01-20T15:24:30.297Z,97284.12
2023-01-20T15:27:33.387Z,97281.13
2023-01-20T15:30:34.929Z,97289.11
2023-01-20T15:33:36.307Z,97290.92
2023-01-20T15:36:39.523Z,97291.31
2023-01-20T15:39:40.873Z,97289.02
2023-01-20T15:42:42.350Z,97289.90
2023-01-20T15:45:44.590Z,97286.01
2023-01-20T15:48:46.361Z,97283.41
2023-01-20T15:51:47.734Z,97280.20
2023-01-20T15:54:49.097Z,97273.25
2023-01-20T15:57:51.835Z,97273.76
2023-01-20T16:00:55.042Z,97271.98
2023-01-20T16:03:56.870Z,97271.09
2023-01-20T16:06:58.390Z,97271.90
2023-01-20T16:09:59.707Z,97272.36
2023-01-20T16:13:01.197Z,97279.24
2023-01-20T16:16:03.606Z,97283.38
2023-01-20T16:19:06.042Z,97286.06
2023-01-20T16:22:08.074Z,97288.73
2023-01-20T16:25:09.466Z,97295.52
2023-01-20T16:28:18.953Z,97301.35
2023-01-20T16:31:21.925Z,97307.83
2023-01-20T16:34:23.538Z,97313.73
2023-01-20T16:37:24.998Z,97318.38
2023-01-20T16:40:27.435Z,97336.47
2023-01-20T16:43:28.808Z,97339.63
2023-01-20T16:46:32.225Z,97351.80
2023-01-20T16:49:33.849Z,97353.63
2023-01-20T16:52:35.265Z,97358.13
2023-01-20T16:55:36.666Z,97365.20
2023-01-20T16:58:38.082Z,97366.57
2023-01-20T17:01:40.438Z,97364.52
2023-01-20T17:04:41.812Z,97366.31
2023-01-20T17:07:43.338Z,97369.27
2023-01-20T17:10:47.578Z,97366.60
2023-01-20T17:13:53.304Z,97372.98
2023-01-20T17:16:56.393Z,97375.77
2023-01-20T17:19:57.789Z,97376.95
2023-01-20T17:22:59.269Z,97377.92
2023-01-20T17:26:01.941Z,97375.97
2023-01-20T17:29:04.662Z,97375.58
2023-01-20T17:32:06.144Z,97373.92
2023-01-20T17:35:07.789Z,97369.34
2023-01-20T17:38:09.701Z,97370.55
2023-01-20T17:41:12.224Z,97369.82
2023-01-20T17:44:13.806Z,97372.94
2023-01-20T17:47:15.176Z,97370.35
2023-01-20T17:50:17.399Z,97369.38
2023-01-20T17:53:20.357Z,97368.78
2023-01-20T17:56:22.307Z,97364.65
2023-01-20T17:59:25.625Z,97365.84
2023-01-20T18:02:27.031Z,97362.98
2023-01-20T18:05:28.522Z,97360.27
2023-01-20T18:08:29.977Z,97360.42
2023-01-20T18:11:35.004Z,97356.42
2023-01-20T18:14:36.467Z,97355.54
2023-01-20T18:17:40.025Z,97345.34
2023-01-20T18:20:41.444Z,97343.74
2023-01-20T18:23:44.171Z,97339.95
2023-01-20T18:26:45.604Z,97345.09
2023-01-20T18:29:47.010Z,97349.02
2023-01-20T18:32:48.429Z,97349.40
2023-01-20T18:35:50.890Z,97349.44
2023-01-20T18:38:54.361Z,97349.37
2023-01-20T18:41:55.738Z,97350.08
2023-01-20T18:44:57.219Z,97348.77
2023-01-20T18:47:58.525Z,97349.31
2023-01-20T18:51:01.264Z,97350.10
2023-01-20T18:54:06.814Z,97349.05
2023-01-20T18:57:09.174Z,97352.27
2023-01-20T19:00:11.433Z,97353.45
2023-01-20T19:03:12.887Z,97355.45
2023-01-20T19:06:17.376Z,97359.23
2023-01-20T19:09:19.401Z,97357.58
2023-01-20T19:12:20.917Z,97359.67
2023-01-20T19:15:23.050Z,97359.02
2023-01-20T19:18:24.839Z,97358.34
2023-01-20T19:21:27.884Z,97355.30
2023-01-20T19:24:29.657Z,97352.05
2023-01-20T19:27:31.114Z,97349.19
2023-01-20T19:30:32.528Z,97347.42
2023-01-20T19:33:35.520Z,97350.04
2023-01-20T19:36:37.318Z,97348.73
2023-01-20T19:39:38.726Z,97354.79
2023-01-20T19:42:40.165Z,97359.05
2023-01-20T19:45:45.692Z,97368.28
2023-01-20T19:48:48.095Z,97367.01
2023-01-20T19:51:49.442Z,97368.23
2023-01-20T19:54:52.000Z,97362.55
2023-01-20T19:57:54.536Z,97364.33
2023-01-20T20:01:08.496Z,97366.11
2023-01-20T20:04:12.395Z,97365.92
2023-01-20T20:07:13.921Z,97371.46
2023-01-20T20:10:17.470Z,97370.95
2023-01-20T20:13:19.832Z,97374.27
2023-01-20T20:16:24.384Z,97378.95
2023-01-20T20:19:26.079Z,97379.46
2023-01-20T20:22:28.557Z,97385.42
2023-01-20T20:25:29.937Z,97390.46
2023-01-20T20:28:31.480Z,97392.35
2023-01-20T20:31:34.970Z,97393.77
2023-01-20T20:34:36.544Z,97392.61
2023-01-20T20:37:38.235Z,97387.55
2023-01-20T20:40:39.732Z,97390.10
2023-01-20T20:43:41.132Z,97400.19
2023-01-20T20:46:45.792Z,97411.80
2023-01-20T20:49:47.356Z,97413.50
2023-01-20T20:52:50.038Z,97411.57
2023-01-20T20:55:54.610Z,97416.02
2023-01-20T20:59:02.027Z,97416.33
2023-01-20T21:02:04.218Z,97423.37
2023-01-20T21:05:06.697Z,97426.19
2023-01-20T21:08:08.125Z,97421.86
2023-01-20T21:11:11.619Z,97430.77
2023-01-20T21:14:13.409Z,97437.18
2023-01-20T21:17:14.934Z,97436.70
2023-01-20T21:20:16.579Z,97435.29
2023-01-20T21:23:58.805Z,97435.96
2023-01-20T21:27:00.372Z,97441.27
2023-01-20T21:30:01.735Z,97444.41
2023-01-20T21:33:03.193Z,97449.40
2023-01-20T21:36:06.560Z,97453.05
2023-01-20T21:39:13.184Z,97459.44
2023-01-20T21:42:14.547Z,97463.63
2023-01-20T21:45:16.042Z,97460.29
2023-01-20T21:48:36.125Z,97455.05
2023-01-20T21:51:56.411Z,97458.77
2023-01-20T21:54:57.845Z,97459.67
2023-01-20T21:57:59.198Z,97455.67
2023-01-20T22:01:00.629Z,97445.27
2023-01-20T22:04:02.806Z,97453.45
2023-01-20T22:07:04.236Z,97464.86
2023-01-20T22:10:07.181Z,97463.94
2023-01-20T22:13:08.769Z,97459.27
2023-01-20T22:16:10.226Z,97464.34
2023-01-20T22:19:14.909Z,97463.49
2023-01-20T22:22:16.379Z,97466.45
2023-01-20T22:25:17.725Z,97478.20
2023-01-20T22:28:19.205Z,97472.06
2023-01-20T22:31:22.805Z,97461.79
2023-01-20T22:34:24.351Z,97457.27
2023-01-20T22:37:25.847Z,97466.66
2023-01-20T22:40:27.234Z,97470.55
2023-01-20T22:43:28.661Z,97464.67
2023-01-20T22:46:30.246Z,97468.60
2023-01-20T22:49:31.602Z,97467.22
2023-01-20T22:52:33.138Z,97469.92
2023-01-20T22:55:34.483Z,97476.09
2023-01-20T22:58:36.489Z,97480.02
2023-01-20T23:01:38.530Z,97481.33
2023-01-20T23:04:39.891Z,97491.12
2023-01-20T23:07:41.272Z,97494.45
2023-01-20T23:10:48.297Z,97496.91
2023-01-20T23:13:50.536Z,97498.86
2023-01-20T23:16:52.212Z,97504.63
2023-01-20T23:19:55.134Z,97506.25
2023-01-20T23:22:56.519Z,97505.76
2023-01-20T23:26:02.291Z,97511.09
2023-01-20T23:29:04.685Z,97515.79
2023-01-20T23:32:06.415Z,97516.91
2023-01-20T23:35:08.298Z,97522.52
2023-01-20T23:38:09.679Z,97529.14
2023-01-20T23:41:12.374Z,97533.13
2023-01-20T23:44:14.171Z,97543.80
2023-01-20T23:47:15.877Z,97543.00
2023-01-20T23:50:17.565Z,97541.45
2023-01-20T23:53:19.952Z,97536.34
2023-01-20T23:56:24.119Z,97541.61
2023-01-20T23:59:25.508Z,97542.88
